Search for airport 
image banner adimage banner adimage banner ad
image banner ad

73CA - Bear Valley

Located in Bear Valley, United States

ICAO - 73CA, IATA -

Data provided by Airmate  

General information

Coordinates: N38°27'32" W120°2'24"
Elevation is 7073 feet MSL.
Magnetic variation is 16° East
View others Airports in California

Operational data

Special qualification required
Current time UTC:
Current local time:
Weather at : KTVL - Lake Tahoe ( 49 km )
METAR: KTVL 211153Z AUTO 18003KT 10SM CLR 07/01 A3020 RMK AO2 SLP165 T00720006 10156 20072 55001
TAF: KTVL 211132Z 2112/2212 19003KT P6SM FEW130 FM211700 04007KT P6SM FEW130 FM212200 20010G18KT P6SM SCT130 FM220400 19003KT P6SM SCT130
View NOTAMs / SUP AIP / TFR affecting this airport [VIEW]
Communications frequencies: [VIEW]

Runways:

RWY identifierQFULength (ft)Width (ft)SurfaceLDA (ft)
01320050OTHER
19320050OTHER

Airport contact information

Address: Bear Valley United States

Satellite view of 73CA